aviador You're here:

KEAU Decoded Metar

EAU CLAIRE in WI, USA
Report Time2018-01-17 05:56:00
UTC Time2018-01-17 06:40:58
Flight Rules vfr VFR
Wind220° at 07 kt
W.Decomp.*RWY 22: 7.0 kt HW 0.1 kt LCW
RWY 14: 1.3 kt HW 6.9 kt RCW
W.Rank220° ranks 19
Current wind is above 220° avg. (6.5)
Visibility9999 m
Phenomena:N/A
Clouds:N/A
Expected CloudBase > 1,200 ft AGL from Temp-Dew spread
CeilingNone
Temp-19°C (ISA -32)
Dew Point-22°C (77% RH)
AAT-25.2°C
QNH1033 hPa
Density Alt-3,868 ft
Elevation906 ft
Report Wrong Elevation
Raw Report
KEAU 170556Z AUTO 22007KT 10SM CLR M19/M22 A3050 RMK AO2 SLP353
T11941217 11156 21194 411111194 58012=

Extra information for KEAU:More info

Metar Taf Metar & Taf Last 4 Metars F.Rules Stats Wind Profile Meteogram Temp Stats Airport Information Weather charts Add Link Nearby VenuesMetar ALERT Operation Metar Decoded Social comments

AIRNAV info for KEAU